Nearby METAR Reports

KLNK - Lincoln, Nebraska, USA
Distance from station: WNW 8mi, 13km
Updated: Wed, 31-Dec-1969 6:00pm CST
NOT Current
unable to load KLNK data RC=
unable to load KLNK data RC=
 
KAHQ - Wahoo, Nebraska, USA
Distance from station: N 31mi, 49km
Updated: Sat, 17-Nov-2018 5:55pm CST
Light snow, Overcast
Light snow, Overcast
 Wind from N
Wind: N 14 mph , 22 km/h
Temperature: 23°F , -5°C
Wind Chill: 11°F , -12°C
Dew Point: 19°F , -7°C
Humidity: 86%
Barometer: 30.42 inHg , 1030.1 hPa
Summary: Light Snow
Clouds: Overcast
Visibility: 5 miles , 8 km
Cloud details: Mostly Cloudy 1800 ft
Overcast 2400 ft
2018/11/17 23:55 KAHQ 172355Z AUTO 01012KT 5SM -SN BKN018 OVC024 M05/M07 A3042 RMK AO2 T10521071 11033 21052
 
KBIE - Beatrice Municip, Nebraska, USA
Distance from station: S 36mi, 57km
Updated: Sat, 17-Nov-2018 5:55pm CST
Light snow, Overcast
Light snow, Overcast
 Wind from NNE
Wind: NNE 12 mph , 19 km/h, Gust: 21 mph , 33 km/h
Temperature: 23°F , -5°C
Wind Chill: 11°F , -12°C
Dew Point: 21°F , -6°C
Humidity: 93%
Barometer: 30.37 inHg , 1028.4 hPa
Summary: Light Snow
Clouds: Overcast
Visibility: 1 1/4 miles , 2 km
Cloud details: Overcast 1200 ft
2018/11/17 23:55 KBIE 172355Z AUTO 02010G18KT 1 1/4SM -SN OVC012 M05/M06 A3037 RMK AO2 T10461058 11010 21046
KMLE - Omaha/Millard, Nebraska, USA
Distance from station: NE 39mi, 63km
Updated: Sat, 17-Nov-2018 5:55pm CST
Light snow, Overcast
Light snow, Overcast
 Wind from N
Wind: N 8 mph , 13 km/h
Temperature: 25°F , -4°C
Wind Chill: 16°F , -9°C
Dew Point: 21°F , -6°C
Humidity: 86%
Barometer: 30.42 inHg , 1030.1 hPa
Summary: Light Snow
Clouds: Overcast
Visibility: 2 1/2 miles , 4 km
Cloud details: Mostly Cloudy 1200 ft
Overcast 2400 ft
2018/11/17 23:55 KMLE 172355Z AUTO 35007KT 310V020 2 1/2SM -SN BKN012 OVC024 M04/M06 A3042 RMK AO2 T10411065 11018 21041
 
KPMV - Plattsmouth Muni, Nebraska, USA
Distance from station: ENE 39mi, 63km
Updated: Sat, 17-Nov-2018 5:55pm CST
Light snow, Overcast
Light snow, Overcast
 Wind from N
Wind: N 10 mph , 17 km/h, Gust: 17 mph , 28 km/h
Temperature: 23°F , -5°C
Wind Chill: 13°F , -11°C
Dew Point: 21°F , -6°C
Humidity: 93%
Barometer: 30.39 inHg , 1029.1 hPa
Summary: Light Snow
Clouds: Overcast
Visibility: 2 1/2 miles , 4 km
Cloud details: Mostly Cloudy 1000 ft
Overcast 1900 ft
2018/11/17 23:55 KPMV 172355Z AUTO 36009G15KT 2 1/2SM -SN BKN010 OVC019 M05/M06 A3039 RMK AO2 T10501062 11016 21051
KAFK - Nebraska City, Nebraska, USA
Distance from station: ESE 43mi, 69km
Updated: Sat, 17-Nov-2018 5:55pm CST
Light snow, Overcast
Light snow, Overcast
 Wind from N
Wind: N 18 mph , 30 km/h, Gust: 24 mph , 39 km/h
Temperature: 23°F , -5°C
Wind Chill: 9°F , -13°C
Dew Point: 21°F , -6°C
Humidity: 93%
Barometer: 30.37 inHg , 1028.4 hPa
Summary: Light Snow
Clouds: Overcast
Visibility: 1 1/4 miles , 2 km
Cloud details: Overcast 800 ft
2018/11/17 23:55 KAFK 172355Z AUTO 01016G21KT 1 1/4SM -SN OVC008 M05/M06 A3037 RMK AO2 T10481065 11015 21048
 
KOFF - Offutt Afb/Belle, Nebraska, USA
Distance from station: ENE 44mi, 70km
Updated: Sat, 17-Nov-2018 5:56pm CST
Light snow, Mist, Overcast
Light snow, Mist, Overcast
 Wind from N
Wind: N 10 mph , 17 km/h
Temperature: 23°F , -5°C
Wind Chill: 13°F , -11°C
Dew Point: 23°F , -5°C
Humidity: 100%
Barometer: 30.41 inHg , 1029.8 hPa
Summary: Light snow, Mist
Clouds: Overcast
Visibility: 6 miles , 10 km
Cloud details: Overcast 3000 ft
2018/11/17 23:56 KOFF 172356Z 36009KT 6SM -SN BR OVC030 M05/M05 A3041 RMK AO2A SLP316 P0000 60000 T10491053 11022 21049 53009 $
KFET - Fremont Muni Arp, Nebraska, USA
Distance from station: N 46mi, 74km
Updated: Sat, 17-Nov-2018 5:55pm CST
Overcast
Overcast
 Wind from N
Wind: N 10 mph , 17 km/h
Temperature: 25°F , -4°C
Wind Chill: 15°F , -9°C
Dew Point: 18°F , -8°C
Humidity: 74%
Barometer: 30.43 inHg , 1030.5 hPa
Clouds: Overcast
Visibility: 10 miles , 16 km
Cloud details: Partly Cloudy 4200 ft
Overcast 5000 ft
2018/11/17 23:55 KFET 172355Z AUTO 01009KT 10SM SCT042 OVC050 M04/M08 A3043 RMK AO2 T10401084 11031 21041
 
KBTA - Blair Muni, Nebraska, USA
Distance from station: NNE 51mi, 82km
Updated: Sat, 17-Nov-2018 5:55pm CST
Overcast
Overcast
 Wind from N
Wind: N 17 mph , 28 km/h
Temperature: 23°F , -5°C
Wind Chill: 9°F , -13°C
Dew Point: 18°F , -8°C
Humidity: 80%
Barometer: 30.40 inHg , 1029.5 hPa
Clouds: Overcast
Visibility: 10 miles , 16 km
Cloud details: Partly Cloudy 1700 ft
Mostly Cloudy 4700 ft
Overcast 6000 ft
2018/11/17 23:55 KBTA 172355Z AUTO 35015KT 10SM SCT017 BKN047 OVC060 M05/M08 A3040 RMK AO2 T10501085 11035 21051
KJYR - York, Nebraska, USA
Distance from station: W 52mi, 84km
Updated: Sat, 17-Nov-2018 5:55pm CST
Light snow, Overcast
Light snow, Overcast
 Wind from NNE
Wind: NNE 18 mph , 30 km/h
Temperature: 21°F , -6°C
Wind Chill: 6°F , -14°C
Dew Point: 18°F , -8°C
Humidity: 86%
Barometer: 30.40 inHg , 1029.5 hPa
Summary: Light Snow
Clouds: Overcast
Visibility: 2 1/2 miles , 4 km
Cloud details: Mostly Cloudy 300 ft
Overcast 2200 ft
2018/11/17 23:55 KJYR 172355Z AUTO 02016KT 2 1/2SM -SN BKN003 OVC022 M06/M08 A3040 RMK AO2
 
KOMA - Omaha/Eppley, Nebraska, USA
Distance from station: NE 53mi, 85km
Updated: Sat, 17-Nov-2018 6:00pm CST
Light snow, Overcast
Light snow, Overcast
 Wind from N
Wind: N 17 mph , 28 km/h, Gust: 25 mph , 41 km/h
Temperature: 23°F , -5°C
Wind Chill: 9°F , -13°C
Dew Point: 18°F , -8°C
Humidity: 80%
Barometer: 30.42 inHg , 1030.1 hPa
Summary: Light Snow
Clouds: Overcast
Visibility: 3 miles , 5 km
Cloud details: Overcast 3000 ft
2018/11/18 00:00 KOMA 180000Z 36015G22KT 3SM -SN OVC030 M05/M08 A3042 RMK AO2 P0001 T10501078
KOLU - Columbus Muni, Nebraska, USA
Distance from station: NW 58mi, 93km
Updated: Sat, 17-Nov-2018 5:56pm CST

 Wind from N
Wind: N 13 mph , 20 km/h
Temperature: 21°F , -6°C
Wind Chill: 8°F , -13°C
Dew Point: 16°F , -9°C
Humidity: 80%
Barometer: 30.44 inHg , 1030.8 hPa
Visibility: 10 miles , 16 km
2018/11/17 23:56 KOLU 172356Z AUTO 36011KT 10SM M06/M09 A3044 RMK AO2 SNE36 SLP330 P0000 60000 T10561094 11044 21061 51005 FZRANO $